sensor_id;sensor_type;location;lat;lon;timestamp;P1;durP1;ratioP1;P2;durP2;ratioP2
20073;SDS011;10197;54.282;10.078;2024-03-22T00:00:46;26.73;;;17.80;;
20073;SDS011;10197;54.282;10.078;2024-03-22T00:03:13;30.35;;;15.85;;
20073;SDS011;10197;54.282;10.078;2024-03-22T00:05:40;30.13;;;18.10;;
20073;SDS011;10197;54.282;10.078;2024-03-22T00:08:07;26.80;;;17.00;;
20073;SDS011;10197;54.282;10.078;2024-03-22T00:10:34;26.50;;;17.17;;
20073;SDS011;10197;54.282;10.078;2024-03-22T00:13:00;25.98;;;16.30;;
20073;SDS011;10197;54.282;10.078;2024-03-22T00:15:26;25.90;;;18.27;;
20073;SDS011;10197;54.282;10.078;2024-03-22T00:17:53;25.05;;;17.45;;
20073;SDS011;10197;54.282;10.078;2024-03-22T00:20:19;28.90;;;17.13;;
20073;SDS011;10197;54.282;10.078;2024-03-22T00:22:47;30.80;;;17.85;;
20073;SDS011;10197;54.282;10.078;2024-03-22T00:25:12;27.17;;;18.08;;
20073;SDS011;10197;54.282;10.078;2024-03-22T00:27:39;28.55;;;17.52;;
20073;SDS011;10197;54.282;10.078;2024-03-22T00:30:05;28.30;;;16.95;;
20073;SDS011;10197;54.282;10.078;2024-03-22T00:32:33;25.38;;;18.27;;
20073;SDS011;10197;54.282;10.078;2024-03-22T00:34:59;27.70;;;18.75;;
20073;SDS011;10197;54.282;10.078;2024-03-22T00:37:25;28.77;;;18.73;;
20073;SDS011;10197;54.282;10.078;2024-03-22T00:39:54;29.33;;;18.45;;
20073;SDS011;10197;54.282;10.078;2024-03-22T00:42:20;28.27;;;18.85;;
20073;SDS011;10197;54.282;10.078;2024-03-22T00:44:47;30.55;;;19.05;;
20073;SDS011;10197;54.282;10.078;2024-03-22T00:47:12;30.60;;;20.45;;
20073;SDS011;10197;54.282;10.078;2024-03-22T00:49:39;29.92;;;19.58;;
20073;SDS011;10197;54.282;10.078;2024-03-22T00:52:05;32.75;;;20.65;;
20073;SDS011;10197;54.282;10.078;2024-03-22T00:54:32;29.30;;;20.23;;
20073;SDS011;10197;54.282;10.078;2024-03-22T00:56:59;30.42;;;19.60;;
20073;SDS011;10197;54.282;10.078;2024-03-22T00:59:25;31.88;;;21.23;;
20073;SDS011;10197;54.282;10.078;2024-03-22T01:01:51;31.23;;;20.27;;
20073;SDS011;10197;54.282;10.078;2024-03-22T01:04:18;30.98;;;20.33;;
20073;SDS011;10197;54.282;10.078;2024-03-22T01:06:43;32.42;;;21.67;;
20073;SDS011;10197;54.282;10.078;2024-03-22T01:09:10;29.33;;;20.52;;
20073;SDS011;10197;54.282;10.078;2024-03-22T01:11:35;28.60;;;20.77;;
20073;SDS011;10197;54.282;10.078;2024-03-22T01:14:03;32.70;;;19.38;;
20073;SDS011;10197;54.282;10.078;2024-03-22T01:16:29;30.23;;;22.05;;
20073;SDS011;10197;54.282;10.078;2024-03-22T01:18:56;34.47;;;20.67;;
20073;SDS011;10197;54.282;10.078;2024-03-22T01:21:21;27.42;;;18.98;;
20073;SDS011;10197;54.282;10.078;2024-03-22T01:23:50;34.92;;;21.17;;
20073;SDS011;10197;54.282;10.078;2024-03-22T01:26:16;32.28;;;22.13;;
20073;SDS011;10197;54.282;10.078;2024-03-22T01:28:43;31.55;;;20.23;;
20073;SDS011;10197;54.282;10.078;2024-03-22T01:31:10;35.72;;;21.88;;
20073;SDS011;10197;54.282;10.078;2024-03-22T01:33:36;34.40;;;23.45;;
20073;SDS011;10197;54.282;10.078;2024-03-22T01:36:02;35.33;;;22.90;;
20073;SDS011;10197;54.282;10.078;2024-03-22T01:38:30;36.03;;;23.08;;
20073;SDS011;10197;54.282;10.078;2024-03-22T01:40:56;32.97;;;21.55;;
20073;SDS011;10197;54.282;10.078;2024-03-22T01:43:22;35.30;;;22.67;;
20073;SDS011;10197;54.282;10.078;2024-03-22T01:45:48;37.03;;;23.83;;
20073;SDS011;10197;54.282;10.078;2024-03-22T01:48:16;34.97;;;24.45;;
20073;SDS011;10197;54.282;10.078;2024-03-22T01:50:42;33.95;;;22.63;;
20073;SDS011;10197;54.282;10.078;2024-03-22T01:53:09;40.45;;;24.70;;
20073;SDS011;10197;54.282;10.078;2024-03-22T01:55:35;36.72;;;24.65;;
20073;SDS011;10197;54.282;10.078;2024-03-22T01:58:02;35.05;;;25.23;;
20073;SDS011;10197;54.282;10.078;2024-03-22T02:00:29;40.63;;;25.67;;
20073;SDS011;10197;54.282;10.078;2024-03-22T02:02:56;36.78;;;23.17;;
20073;SDS011;10197;54.282;10.078;2024-03-22T02:05:23;44.22;;;24.33;;
20073;SDS011;10197;54.282;10.078;2024-03-22T02:07:50;38.63;;;26.08;;
20073;SDS011;10197;54.282;10.078;2024-03-22T02:10:16;39.05;;;25.42;;
20073;SDS011;10197;54.282;10.078;2024-03-22T02:12:43;41.75;;;26.52;;
20073;SDS011;10197;54.282;10.078;2024-03-22T02:15:09;41.88;;;27.63;;
20073;SDS011;10197;54.282;10.078;2024-03-22T02:17:36;40.28;;;25.98;;
20073;SDS011;10197;54.282;10.078;2024-03-22T02:20:02;38.03;;;24.40;;
20073;SDS011;10197;54.282;10.078;2024-03-22T02:22:31;41.97;;;27.63;;
20073;SDS011;10197;54.282;10.078;2024-03-22T02:24:58;42.60;;;27.92;;
20073;SDS011;10197;54.282;10.078;2024-03-22T02:27:25;43.42;;;28.05;;
20073;SDS011;10197;54.282;10.078;2024-03-22T02:29:51;44.22;;;28.73;;
20073;SDS011;10197;54.282;10.078;2024-03-22T02:32:18;39.17;;;27.73;;
20073;SDS011;10197;54.282;10.078;2024-03-22T02:34:43;42.72;;;29.50;;
20073;SDS011;10197;54.282;10.078;2024-03-22T02:37:10;42.38;;;28.67;;
20073;SDS011;10197;54.282;10.078;2024-03-22T02:39:36;41.65;;;27.58;;
20073;SDS011;10197;54.282;10.078;2024-03-22T02:42:04;43.35;;;26.60;;
20073;SDS011;10197;54.282;10.078;2024-03-22T02:44:30;43.75;;;28.27;;
20073;SDS011;10197;54.282;10.078;2024-03-22T02:46:57;42.65;;;28.17;;
20073;SDS011;10197;54.282;10.078;2024-03-22T02:49:22;39.70;;;26.58;;
20073;SDS011;10197;54.282;10.078;2024-03-22T02:51:49;42.75;;;28.48;;
20073;SDS011;10197;54.282;10.078;2024-03-22T02:54:15;44.80;;;29.40;;
20073;SDS011;10197;54.282;10.078;2024-03-22T02:56:41;42.92;;;29.60;;
20073;SDS011;10197;54.282;10.078;2024-03-22T02:59:09;41.10;;;27.70;;
20073;SDS011;10197;54.282;10.078;2024-03-22T03:01:35;54.47;;;31.25;;
20073;SDS011;10197;54.282;10.078;2024-03-22T03:04:01;45.42;;;29.95;;
20073;SDS011;10197;54.282;10.078;2024-03-22T03:06:28;45.60;;;29.02;;
20073;SDS011;10197;54.282;10.078;2024-03-22T03:08:53;43.47;;;30.33;;
20073;SDS011;10197;54.282;10.078;2024-03-22T03:11:20;43.22;;;28.33;;
20073;SDS011;10197;54.282;10.078;2024-03-22T03:13:45;43.70;;;28.13;;
20073;SDS011;10197;54.282;10.078;2024-03-22T03:16:14;44.13;;;30.05;;
20073;SDS011;10197;54.282;10.078;2024-03-22T03:18:40;42.92;;;29.33;;
20073;SDS011;10197;54.282;10.078;2024-03-22T03:21:07;44.38;;;28.30;;
20073;SDS011;10197;54.282;10.078;2024-03-22T03:23:33;45.15;;;30.33;;
20073;SDS011;10197;54.282;10.078;2024-03-22T03:26:00;44.97;;;29.70;;
20073;SDS011;10197;54.282;10.078;2024-03-22T03:28:26;43.75;;;29.40;;
20073;SDS011;10197;54.282;10.078;2024-03-22T03:30:53;48.03;;;31.40;;
20073;SDS011;10197;54.282;10.078;2024-03-22T03:33:20;43.50;;;29.17;;
20073;SDS011;10197;54.282;10.078;2024-03-22T03:35:46;47.50;;;32.65;;
20073;SDS011;10197;54.282;10.078;2024-03-22T03:38:12;45.25;;;30.48;;
20073;SDS011;10197;54.282;10.078;2024-03-22T03:40:39;47.63;;;32.08;;
20073;SDS011;10197;54.282;10.078;2024-03-22T03:43:05;51.58;;;31.90;;
20073;SDS011;10197;54.282;10.078;2024-03-22T03:45:32;46.85;;;31.88;;
20073;SDS011;10197;54.282;10.078;2024-03-22T03:47:57;47.13;;;31.25;;
20073;SDS011;10197;54.282;10.078;2024-03-22T03:50:25;49.53;;;31.05;;
20073;SDS011;10197;54.282;10.078;2024-03-22T03:52:51;46.38;;;32.30;;
20073;SDS011;10197;54.282;10.078;2024-03-22T03:55:17;48.20;;;32.22;;
20073;SDS011;10197;54.282;10.078;2024-03-22T03:57:43;47.80;;;30.80;;
20073;SDS011;10197;54.282;10.078;2024-03-22T04:00:10;51.30;;;33.30;;
20073;SDS011;10197;54.282;10.078;2024-03-22T04:02:36;51.65;;;31.52;;
20073;SDS011;10197;54.282;10.078;2024-03-22T04:05:03;46.40;;;31.75;;
20073;SDS011;10197;54.282;10.078;2024-03-22T04:07:30;49.65;;;32.20;;
20073;SDS011;10197;54.282;10.078;2024-03-22T04:09:58;44.03;;;31.92;;
20073;SDS011;10197;54.282;10.078;2024-03-22T04:12:25;51.33;;;31.55;;
20073;SDS011;10197;54.282;10.078;2024-03-22T04:14:52;49.05;;;32.63;;
20073;SDS011;10197;54.282;10.078;2024-03-22T04:17:17;46.53;;;32.42;;
20073;SDS011;10197;54.282;10.078;2024-03-22T04:19:44;46.90;;;32.25;;
20073;SDS011;10197;54.282;10.078;2024-03-22T04:22:10;47.95;;;31.77;;
20073;SDS011;10197;54.282;10.078;2024-03-22T04:24:38;51.47;;;33.83;;
20073;SDS011;10197;54.282;10.078;2024-03-22T04:27:04;50.08;;;33.10;;
20073;SDS011;10197;54.282;10.078;2024-03-22T04:29:32;49.13;;;33.05;;
20073;SDS011;10197;54.282;10.078;2024-03-22T04:31:58;50.22;;;33.55;;
20073;SDS011;10197;54.282;10.078;2024-03-22T04:34:24;53.00;;;30.83;;
20073;SDS011;10197;54.282;10.078;2024-03-22T04:36:50;49.13;;;31.27;;
20073;SDS011;10197;54.282;10.078;2024-03-22T04:39:18;49.38;;;33.83;;
20073;SDS011;10197;54.282;10.078;2024-03-22T04:41:47;49.42;;;32.92;;
20073;SDS011;10197;54.282;10.078;2024-03-22T04:44:12;47.40;;;32.40;;
20073;SDS011;10197;54.282;10.078;2024-03-22T04:46:39;52.70;;;33.30;;
20073;SDS011;10197;54.282;10.078;2024-03-22T04:49:05;54.95;;;34.63;;
20073;SDS011;10197;54.282;10.078;2024-03-22T04:51:31;57.30;;;35.28;;
20073;SDS011;10197;54.282;10.078;2024-03-22T04:53:57;53.90;;;35.38;;
20073;SDS011;10197;54.282;10.078;2024-03-22T04:56:23;57.60;;;36.22;;
20073;SDS011;10197;54.282;10.078;2024-03-22T04:58:51;57.75;;;36.42;;
20073;SDS011;10197;54.282;10.078;2024-03-22T05:01:17;53.95;;;35.13;;
20073;SDS011;10197;54.282;10.078;2024-03-22T05:03:43;56.17;;;35.55;;
20073;SDS011;10197;54.282;10.078;2024-03-22T05:06:10;53.22;;;33.92;;
20073;SDS011;10197;54.282;10.078;2024-03-22T05:08:36;56.83;;;36.22;;
20073;SDS011;10197;54.282;10.078;2024-03-22T05:11:02;58.15;;;37.38;;
20073;SDS011;10197;54.282;10.078;2024-03-22T05:13:28;59.15;;;39.28;;
20073;SDS011;10197;54.282;10.078;2024-03-22T05:15:56;61.90;;;39.55;;
20073;SDS011;10197;54.282;10.078;2024-03-22T05:18:22;57.67;;;37.60;;
20073;SDS011;10197;54.282;10.078;2024-03-22T05:20:49;61.22;;;38.95;;
20073;SDS011;10197;54.282;10.078;2024-03-22T05:23:14;62.00;;;39.38;;
20073;SDS011;10197;54.282;10.078;2024-03-22T05:25:43;62.28;;;39.85;;
20073;SDS011;10197;54.282;10.078;2024-03-22T05:28:08;60.90;;;38.42;;
20073;SDS011;10197;54.282;10.078;2024-03-22T05:30:35;60.42;;;37.95;;
20073;SDS011;10197;54.282;10.078;2024-03-22T05:33:02;64.20;;;41.13;;
20073;SDS011;10197;54.282;10.078;2024-03-22T05:35:29;63.22;;;39.78;;
20073;SDS011;10197;54.282;10.078;2024-03-22T05:37:55;69.60;;;42.25;;
20073;SDS011;10197;54.282;10.078;2024-03-22T05:40:22;71.13;;;41.78;;
20073;SDS011;10197;54.282;10.078;2024-03-22T05:42:48;65.40;;;39.70;;
20073;SDS011;10197;54.282;10.078;2024-03-22T05:45:15;67.97;;;41.17;;
20073;SDS011;10197;54.282;10.078;2024-03-22T05:47:40;71.10;;;42.90;;
20073;SDS011;10197;54.282;10.078;2024-03-22T05:50:09;74.40;;;45.13;;
20073;SDS011;10197;54.282;10.078;2024-03-22T05:52:34;75.32;;;44.60;;
20073;SDS011;10197;54.282;10.078;2024-03-22T05:55:01;70.75;;;42.42;;
20073;SDS011;10197;54.282;10.078;2024-03-22T05:57:27;77.82;;;44.83;;
20073;SDS011;10197;54.282;10.078;2024-03-22T05:59:54;77.72;;;44.88;;
20073;SDS011;10197;54.282;10.078;2024-03-22T06:02:20;78.15;;;45.17;;
20073;SDS011;10197;54.282;10.078;2024-03-22T06:04:46;77.75;;;45.60;;
20073;SDS011;10197;54.282;10.078;2024-03-22T06:07:14;80.13;;;45.58;;
20073;SDS011;10197;54.282;10.078;2024-03-22T06:09:42;78.60;;;46.88;;
20073;SDS011;10197;54.282;10.078;2024-03-22T06:12:11;83.47;;;47.78;;
20073;SDS011;10197;54.282;10.078;2024-03-22T06:14:38;83.03;;;46.90;;
20073;SDS011;10197;54.282;10.078;2024-03-22T06:17:04;79.82;;;47.03;;
20073;SDS011;10197;54.282;10.078;2024-03-22T06:19:31;82.85;;;49.83;;
20073;SDS011;10197;54.282;10.078;2024-03-22T06:21:56;76.40;;;45.33;;
20073;SDS011;10197;54.282;10.078;2024-03-22T06:24:24;79.38;;;47.10;;
20073;SDS011;10197;54.282;10.078;2024-03-22T06:26:50;80.60;;;47.10;;
20073;SDS011;10197;54.282;10.078;2024-03-22T06:29:17;85.38;;;50.00;;
20073;SDS011;10197;54.282;10.078;2024-03-22T06:31:42;87.53;;;48.33;;
20073;SDS011;10197;54.282;10.078;2024-03-22T06:34:09;80.50;;;49.83;;
20073;SDS011;10197;54.282;10.078;2024-03-22T06:36:35;79.85;;;47.90;;
20073;SDS011;10197;54.282;10.078;2024-03-22T06:39:02;84.03;;;48.38;;
20073;SDS011;10197;54.282;10.078;2024-03-22T06:41:31;81.72;;;47.85;;
20073;SDS011;10197;54.282;10.078;2024-03-22T06:43:57;83.40;;;48.22;;
20073;SDS011;10197;54.282;10.078;2024-03-22T06:46:23;85.10;;;49.70;;
20073;SDS011;10197;54.282;10.078;2024-03-22T06:48:50;78.13;;;48.22;;
20073;SDS011;10197;54.282;10.078;2024-03-22T06:51:17;77.22;;;46.42;;
20073;SDS011;10197;54.282;10.078;2024-03-22T06:53:43;76.30;;;46.17;;
20073;SDS011;10197;54.282;10.078;2024-03-22T06:56:10;72.80;;;44.25;;
20073;SDS011;10197;54.282;10.078;2024-03-22T06:58:39;74.22;;;45.47;;
20073;SDS011;10197;54.282;10.078;2024-03-22T07:01:05;77.20;;;46.63;;
20073;SDS011;10197;54.282;10.078;2024-03-22T07:03:32;78.72;;;45.95;;
20073;SDS011;10197;54.282;10.078;2024-03-22T07:05:58;70.85;;;44.00;;
20073;SDS011;10197;54.282;10.078;2024-03-22T07:08:25;79.20;;;46.15;;
20073;SDS011;10197;54.282;10.078;2024-03-22T07:10:51;73.30;;;40.78;;
20073;SDS011;10197;54.282;10.078;2024-03-22T07:13:18;75.40;;;42.30;;
20073;SDS011;10197;54.282;10.078;2024-03-22T07:15:45;71.85;;;43.15;;
20073;SDS011;10197;54.282;10.078;2024-03-22T07:18:12;74.25;;;43.40;;
20073;SDS011;10197;54.282;10.078;2024-03-22T07:20:38;72.35;;;43.17;;
20073;SDS011;10197;54.282;10.078;2024-03-22T07:23:05;73.35;;;45.47;;
20073;SDS011;10197;54.282;10.078;2024-03-22T07:25:30;71.95;;;44.50;;
20073;SDS011;10197;54.282;10.078;2024-03-22T07:27:57;66.32;;;41.35;;
20073;SDS011;10197;54.282;10.078;2024-03-22T07:30:23;69.05;;;42.40;;
20073;SDS011;10197;54.282;10.078;2024-03-22T07:32:51;64.05;;;40.45;;
20073;SDS011;10197;54.282;10.078;2024-03-22T07:35:17;66.05;;;41.25;;
20073;SDS011;10197;54.282;10.078;2024-03-22T07:37:44;68.13;;;41.00;;
20073;SDS011;10197;54.282;10.078;2024-03-22T07:40:10;66.43;;;40.65;;
20073;SDS011;10197;54.282;10.078;2024-03-22T07:42:36;65.88;;;41.55;;
20073;SDS011;10197;54.282;10.078;2024-03-22T07:45:02;65.85;;;40.78;;
20073;SDS011;10197;54.282;10.078;2024-03-22T07:47:29;61.45;;;39.53;;
20073;SDS011;10197;54.282;10.078;2024-03-22T07:49:57;64.15;;;39.35;;
20073;SDS011;10197;54.282;10.078;2024-03-22T07:52:24;62.00;;;38.65;;
20073;SDS011;10197;54.282;10.078;2024-03-22T07:54:49;62.17;;;38.50;;
20073;SDS011;10197;54.282;10.078;2024-03-22T07:57:16;62.58;;;38.33;;
20073;SDS011;10197;54.282;10.078;2024-03-22T07:59:42;66.38;;;37.85;;
20073;SDS011;10197;54.282;10.078;2024-03-22T08:02:09;60.50;;;37.08;;
20073;SDS011;10197;54.282;10.078;2024-03-22T08:04:35;62.85;;;38.50;;
20073;SDS011;10197;54.282;10.078;2024-03-22T08:07:03;62.67;;;38.95;;
20073;SDS011;10197;54.282;10.078;2024-03-22T08:09:29;62.15;;;38.20;;
20073;SDS011;10197;54.282;10.078;2024-03-22T08:11:56;60.17;;;37.80;;
20073;SDS011;10197;54.282;10.078;2024-03-22T08:14:21;58.67;;;36.60;;
20073;SDS011;10197;54.282;10.078;2024-03-22T08:16:48;57.85;;;36.38;;
20073;SDS011;10197;54.282;10.078;2024-03-22T08:19:14;57.30;;;37.53;;
20073;SDS011;10197;54.282;10.078;2024-03-22T08:21:41;55.22;;;35.78;;
20073;SDS011;10197;54.282;10.078;2024-03-22T08:24:08;54.42;;;34.85;;
20073;SDS011;10197;54.282;10.078;2024-03-22T08:26:35;50.90;;;31.42;;
20073;SDS011;10197;54.282;10.078;2024-03-22T08:29:00;45.03;;;29.65;;
20073;SDS011;10197;54.282;10.078;2024-03-22T08:31:28;38.30;;;26.33;;
20073;SDS011;10197;54.282;10.078;2024-03-22T08:33:53;41.05;;;26.42;;
20073;SDS011;10197;54.282;10.078;2024-03-22T08:36:21;43.92;;;25.17;;
20073;SDS011;10197;54.282;10.078;2024-03-22T08:38:47;35.28;;;23.02;;
20073;SDS011;10197;54.282;10.078;2024-03-22T08:41:15;36.28;;;22.42;;
20073;SDS011;10197;54.282;10.078;2024-03-22T08:43:41;29.77;;;19.50;;
20073;SDS011;10197;54.282;10.078;2024-03-22T08:46:07;29.17;;;19.20;;
20073;SDS011;10197;54.282;10.078;2024-03-22T08:48:33;26.52;;;17.38;;
20073;SDS011;10197;54.282;10.078;2024-03-22T08:51:00;23.27;;;16.33;;
20073;SDS011;10197;54.282;10.078;2024-03-22T08:53:25;23.77;;;16.73;;
20073;SDS011;10197;54.282;10.078;2024-03-22T08:55:52;23.50;;;14.38;;
20073;SDS011;10197;54.282;10.078;2024-03-22T08:58:19;18.02;;;13.23;;
20073;SDS011;10197;54.282;10.078;2024-03-22T09:00:46;15.60;;;11.90;;
20073;SDS011;10197;54.282;10.078;2024-03-22T09:03:12;16.92;;;12.23;;
20073;SDS011;10197;54.282;10.078;2024-03-22T09:05:39;15.18;;;11.95;;
20073;SDS011;10197;54.282;10.078;2024-03-22T09:08:07;17.75;;;11.55;;
20073;SDS011;10197;54.282;10.078;2024-03-22T09:10:34;14.30;;;11.30;;
20073;SDS011;10197;54.282;10.078;2024-03-22T09:13:00;15.57;;;10.75;;
20073;SDS011;10197;54.282;10.078;2024-03-22T09:15:28;11.80;;;9.75;;
20073;SDS011;10197;54.282;10.078;2024-03-22T09:17:54;12.38;;;10.05;;
20073;SDS011;10197;54.282;10.078;2024-03-22T09:20:21;11.75;;;9.50;;
20073;SDS011;10197;54.282;10.078;2024-03-22T09:22:46;10.13;;;8.82;;
20073;SDS011;10197;54.282;10.078;2024-03-22T09:25:14;13.93;;;9.48;;
20073;SDS011;10197;54.282;10.078;2024-03-22T09:27:40;12.48;;;8.90;;
20073;SDS011;10197;54.282;10.078;2024-03-22T09:30:07;11.23;;;9.02;;
20073;SDS011;10197;54.282;10.078;2024-03-22T09:32:36;10.45;;;8.30;;
20073;SDS011;10197;54.282;10.078;2024-03-22T09:35:02;9.70;;;7.55;;
20073;SDS011;10197;54.282;10.078;2024-03-22T09:37:29;10.10;;;7.78;;
20073;SDS011;10197;54.282;10.078;2024-03-22T09:39:55;8.65;;;7.05;;
20073;SDS011;10197;54.282;10.078;2024-03-22T09:42:22;9.00;;;7.93;;
20073;SDS011;10197;54.282;10.078;2024-03-22T09:44:48;9.50;;;7.25;;
20073;SDS011;10197;54.282;10.078;2024-03-22T09:47:16;9.27;;;6.88;;
20073;SDS011;10197;54.282;10.078;2024-03-22T09:49:43;10.10;;;8.40;;
20073;SDS011;10197;54.282;10.078;2024-03-22T09:52:11;10.82;;;8.75;;
20073;SDS011;10197;54.282;10.078;2024-03-22T09:54:38;10.48;;;8.20;;
20073;SDS011;10197;54.282;10.078;2024-03-22T09:57:05;10.95;;;8.52;;
20073;SDS011;10197;54.282;10.078;2024-03-22T09:59:32;11.15;;;8.10;;
20073;SDS011;10197;54.282;10.078;2024-03-22T10:01:59;8.80;;;7.32;;
20073;SDS011;10197;54.282;10.078;2024-03-22T10:04:26;10.88;;;8.35;;
20073;SDS011;10197;54.282;10.078;2024-03-22T10:06:54;9.27;;;7.22;;
20073;SDS011;10197;54.282;10.078;2024-03-22T10:09:27;10.95;;;7.85;;
20073;SDS011;10197;54.282;10.078;2024-03-22T10:11:55;9.40;;;7.25;;
20073;SDS011;10197;54.282;10.078;2024-03-22T10:14:20;9.05;;;6.93;;
20073;SDS011;10197;54.282;10.078;2024-03-22T10:16:50;9.10;;;7.53;;
20073;SDS011;10197;54.282;10.078;2024-03-22T10:19:16;11.23;;;7.80;;
20073;SDS011;10197;54.282;10.078;2024-03-22T10:21:43;9.90;;;8.10;;
20073;SDS011;10197;54.282;10.078;2024-03-22T10:24:11;11.25;;;8.90;;
20073;SDS011;10197;54.282;10.078;2024-03-22T10:26:38;13.20;;;8.32;;
20073;SDS011;10197;54.282;10.078;2024-03-22T10:29:05;12.38;;;8.43;;
20073;SDS011;10197;54.282;10.078;2024-03-22T10:31:32;11.40;;;8.82;;
20073;SDS011;10197;54.282;10.078;2024-03-22T10:34:00;11.10;;;8.13;;
20073;SDS011;10197;54.282;10.078;2024-03-22T10:36:29;12.57;;;8.93;;
20073;SDS011;10197;54.282;10.078;2024-03-22T10:38:56;13.20;;;9.65;;
20073;SDS011;10197;54.282;10.078;2024-03-22T10:41:27;12.77;;;9.27;;
20073;SDS011;10197;54.282;10.078;2024-03-22T10:43:52;14.65;;;10.13;;
20073;SDS011;10197;54.282;10.078;2024-03-22T10:46:19;16.08;;;9.88;;
20073;SDS011;10197;54.282;10.078;2024-03-22T10:48:45;17.60;;;10.30;;
20073;SDS011;10197;54.282;10.078;2024-03-22T10:51:12;13.82;;;9.65;;
20073;SDS011;10197;54.282;10.078;2024-03-22T10:53:40;15.15;;;10.60;;
20073;SDS011;10197;54.282;10.078;2024-03-22T10:56:07;15.38;;;10.05;;
20073;SDS011;10197;54.282;10.078;2024-03-22T10:58:35;12.48;;;10.07;;
20073;SDS011;10197;54.282;10.078;2024-03-22T11:01:05;14.95;;;10.20;;
20073;SDS011;10197;54.282;10.078;2024-03-22T11:03:31;12.30;;;9.20;;
20073;SDS011;10197;54.282;10.078;2024-03-22T11:05:59;13.35;;;10.25;;
20073;SDS011;10197;54.282;10.078;2024-03-22T11:08:24;11.23;;;9.13;;
20073;SDS011;10197;54.282;10.078;2024-03-22T11:10:52;11.57;;;8.90;;
20073;SDS011;10197;54.282;10.078;2024-03-22T11:13:20;11.57;;;9.30;;
20073;SDS011;10197;54.282;10.078;2024-03-22T11:15:49;10.20;;;8.50;;
20073;SDS011;10197;54.282;10.078;2024-03-22T11:18:15;9.60;;;8.52;;
20073;SDS011;10197;54.282;10.078;2024-03-22T11:20:42;9.85;;;7.97;;
20073;SDS011;10197;54.282;10.078;2024-03-22T11:23:08;8.38;;;7.47;;
20073;SDS011;10197;54.282;10.078;2024-03-22T11:25:35;9.95;;;8.60;;
20073;SDS011;10197;54.282;10.078;2024-03-22T11:28:01;10.40;;;8.60;;
20073;SDS011;10197;54.282;10.078;2024-03-22T11:30:28;10.23;;;8.40;;
20073;SDS011;10197;54.282;10.078;2024-03-22T11:32:56;8.25;;;7.32;;
20073;SDS011;10197;54.282;10.078;2024-03-22T11:35:22;9.20;;;7.68;;
20073;SDS011;10197;54.282;10.078;2024-03-22T11:37:49;6.95;;;6.25;;
20073;SDS011;10197;54.282;10.078;2024-03-22T11:40:16;8.18;;;6.57;;
20073;SDS011;10197;54.282;10.078;2024-03-22T11:42:43;7.45;;;6.47;;
20073;SDS011;10197;54.282;10.078;2024-03-22T11:45:12;8.40;;;6.00;;
20073;SDS011;10197;54.282;10.078;2024-03-22T11:47:39;7.28;;;6.47;;
20073;SDS011;10197;54.282;10.078;2024-03-22T11:50:08;8.45;;;6.57;;
20073;SDS011;10197;54.282;10.078;2024-03-22T11:52:39;6.65;;;5.90;;
20073;SDS011;10197;54.282;10.078;2024-03-22T11:55:06;7.00;;;6.03;;
20073;SDS011;10197;54.282;10.078;2024-03-22T11:57:32;7.40;;;5.75;;
20073;SDS011;10197;54.282;10.078;2024-03-22T11:59:59;6.70;;;5.72;;
20073;SDS011;10197;54.282;10.078;2024-03-22T12:02:25;9.65;;;6.00;;
20073;SDS011;10197;54.282;10.078;2024-03-22T12:04:51;7.25;;;6.13;;
20073;SDS011;10197;54.282;10.078;2024-03-22T12:07:18;7.30;;;5.90;;
20073;SDS011;10197;54.282;10.078;2024-03-22T12:09:45;6.85;;;5.75;;
20073;SDS011;10197;54.282;10.078;2024-03-22T12:12:11;7.68;;;5.70;;
20073;SDS011;10197;54.282;10.078;2024-03-22T12:14:39;6.95;;;6.05;;
20073;SDS011;10197;54.282;10.078;2024-03-22T12:17:05;9.15;;;6.18;;
20073;SDS011;10197;54.282;10.078;2024-03-22T12:19:32;7.28;;;5.95;;
20073;SDS011;10197;54.282;10.078;2024-03-22T12:21:58;5.97;;;5.18;;
20073;SDS011;10197;54.282;10.078;2024-03-22T12:24:26;7.80;;;5.90;;
20073;SDS011;10197;54.282;10.078;2024-03-22T12:26:52;7.18;;;5.88;;
20073;SDS011;10197;54.282;10.078;2024-03-22T12:29:19;7.10;;;5.38;;
20073;SDS011;10197;54.282;10.078;2024-03-22T12:31:45;5.70;;;5.05;;
20073;SDS011;10197;54.282;10.078;2024-03-22T12:34:13;5.88;;;4.93;;
20073;SDS011;10197;54.282;10.078;2024-03-22T12:36:41;7.47;;;5.32;;
20073;SDS011;10197;54.282;10.078;2024-03-22T12:39:08;6.90;;;4.75;;
20073;SDS011;10197;54.282;10.078;2024-03-22T12:41:35;6.22;;;5.25;;
20073;SDS011;10197;54.282;10.078;2024-03-22T12:44:02;7.30;;;5.03;;
20073;SDS011;10197;54.282;10.078;2024-03-22T12:46:28;7.20;;;4.97;;
20073;SDS011;10197;54.282;10.078;2024-03-22T12:48:55;8.25;;;5.18;;
20073;SDS011;10197;54.282;10.078;2024-03-22T12:51:21;5.18;;;4.68;;
20073;SDS011;10197;54.282;10.078;2024-03-22T12:53:49;9.63;;;4.93;;
20073;SDS011;10197;54.282;10.078;2024-03-22T12:56:14;8.45;;;5.18;;
20073;SDS011;10197;54.282;10.078;2024-03-22T12:58:43;9.50;;;5.10;;
20073;SDS011;10197;54.282;10.078;2024-03-22T13:01:09;7.25;;;4.60;;
20073;SDS011;10197;54.282;10.078;2024-03-22T13:03:36;10.43;;;4.70;;
20073;SDS011;10197;54.282;10.078;2024-03-22T13:06:03;12.07;;;5.35;;
20073;SDS011;10197;54.282;10.078;2024-03-22T13:08:30;17.67;;;6.68;;
20073;SDS011;10197;54.282;10.078;2024-03-22T13:10:56;14.10;;;5.13;;
20073;SDS011;10197;54.282;10.078;2024-03-22T13:13:22;13.65;;;4.88;;
20073;SDS011;10197;54.282;10.078;2024-03-22T13:15:50;16.63;;;5.13;;
20073;SDS011;10197;54.282;10.078;2024-03-22T13:18:16;13.20;;;4.45;;
20073;SDS011;10197;54.282;10.078;2024-03-22T13:20:42;15.52;;;5.15;;
20073;SDS011;10197;54.282;10.078;2024-03-22T13:23:09;14.20;;;4.82;;
20073;SDS011;10197;54.282;10.078;2024-03-22T13:25:37;18.35;;;5.40;;
20073;SDS011;10197;54.282;10.078;2024-03-22T13:28:03;17.38;;;4.88;;
20073;SDS011;10197;54.282;10.078;2024-03-22T13:30:30;19.25;;;5.32;;
20073;SDS011;10197;54.282;10.078;2024-03-22T13:32:58;15.88;;;5.20;;
20073;SDS011;10197;54.282;10.078;2024-03-22T13:35:24;17.88;;;5.90;;
20073;SDS011;10197;54.282;10.078;2024-03-22T13:37:51;18.02;;;5.13;;
20073;SDS011;10197;54.282;10.078;2024-03-22T13:40:17;15.68;;;5.75;;
20073;SDS011;10197;54.282;10.078;2024-03-22T13:42:44;12.55;;;4.70;;
20073;SDS011;10197;54.282;10.078;2024-03-22T13:45:10;17.95;;;5.25;;
20073;SDS011;10197;54.282;10.078;2024-03-22T13:47:36;19.15;;;6.43;;
20073;SDS011;10197;54.282;10.078;2024-03-22T13:50:04;17.73;;;6.75;;
20073;SDS011;10197;54.282;10.078;2024-03-22T13:52:33;20.35;;;5.78;;
20073;SDS011;10197;54.282;10.078;2024-03-22T13:55:00;21.92;;;6.07;;
20073;SDS011;10197;54.282;10.078;2024-03-22T13:57:27;19.55;;;5.25;;
20073;SDS011;10197;54.282;10.078;2024-03-22T13:59:52;24.25;;;6.18;;
20073;SDS011;10197;54.282;10.078;2024-03-22T14:02:19;19.75;;;5.90;;
20073;SDS011;10197;54.282;10.078;2024-03-22T14:04:45;21.25;;;6.22;;
20073;SDS011;10197;54.282;10.078;2024-03-22T14:07:13;21.20;;;5.82;;
20073;SDS011;10197;54.282;10.078;2024-03-22T14:09:40;25.00;;;6.82;;
20073;SDS011;10197;54.282;10.078;2024-03-22T14:12:08;23.58;;;6.47;;